Time;durP1;ratioP1;P1;durP2;ratioP2;P2;SDS_P1;SDS_P2;PMS_P1;PMS_P2;Temp;Humidity;BMP_temperature;BMP_pressure;BME280_temperature;BME280_humidity;BME280_pressure;Samples;Min_cycle;Max_cycle;Signal;HPM_P1;HPM_P2
2022/08/03 00:02:15;;;;;;;4.07;2.17;;;;;;;;;;4735643;30;20088;-54
2022/08/03 00:04:43;;;;;;;3.38;1.35;;;;;;;;;;4735283;30;20094;-50
2022/08/03 00:07:10;;;;;;;2.92;1.70;;;;;;;;;;4735136;30;20056;-55
2022/08/03 00:09:37;;;;;;;3.20;2.00;;;;;;;;;;4747642;30;20052;-52
2022/08/03 00:12:05;;;;;;;4.63;1.63;;;;;;;;;;4752789;30;20052;-56
2022/08/03 00:14:32;;;;;;;5.20;1.92;;;;;;;;;;4752506;30;20051;-56
2022/08/03 00:16:59;;;;;;;4.43;1.80;;;;;;;;;;4752414;30;20520;-55
2022/08/03 00:19:27;;;;;;;3.03;1.98;;;;;;;;;;4752745;30;20487;-55
2022/08/03 00:21:54;;;;;;;3.58;1.42;;;;;;;;;;4752394;30;20102;-53
2022/08/03 00:24:21;;;;;;;3.60;1.35;;;;;;;;;;4752643;30;20048;-53
2022/08/03 00:26:48;;;;;;;4.15;1.40;;;;;;;;;;4752626;30;20052;-53
2022/08/03 00:29:16;;;;;;;3.85;1.83;;;;;;;;;;4766356;30;20075;-55
2022/08/03 00:31:43;;;;;;;1.85;1.30;;;;;;;;;;4752710;30;20052;-54
2022/08/03 00:34:25;;;;;;;6.10;1.95;;;;;;;;;;4752165;30;20048;-56
2022/08/03 00:37:12;;;;;;;3.50;1.73;;;;;;;;;;4752678;30;20052;-56
2022/08/03 00:39:42;;;;;;;6.53;1.33;;;;;;;;;;4752497;30;20074;-55
2022/08/03 00:42:09;;;;;;;3.88;1.70;;;;;;;;;;4752286;30;20540;-53
2022/08/03 00:44:41;;;;;;;3.35;1.20;;;;;;;;;;4751950;30;20060;-54
2022/08/03 00:47:12;;;;;;;3.03;1.70;;;;;;;;;;4752314;30;20048;-55
2022/08/03 00:49:39;;;;;;;4.07;1.63;;;;;;;;;;4752136;30;20052;-53
2022/08/03 00:52:12;;;;;;;2.92;1.30;;;;;;;;;;4751995;30;20080;-55
2022/08/03 00:54:40;;;;;;;2.67;1.80;;;;;;;;;;4751895;30;20140;-56
2022/08/03 00:57:08;;;;;;;5.32;2.10;;;;;;;;;;4752046;30;20158;-55
2022/08/03 00:59:37;;;;;;;4.25;1.77;;;;;;;;;;4752093;30;20496;-54
2022/08/03 01:02:05;;;;;;;4.18;1.55;;;;;;;;;;4751976;30;20068;-54
2022/08/03 01:04:33;;;;;;;1.60;1.30;;;;;;;;;;4751910;30;20050;-53
2022/08/03 01:07:10;;;;;;;6.05;1.95;;;;;;;;;;4750696;30;20131;-54
2022/08/03 01:10:10;;;;;;;4.00;1.33;;;;;;;;;;4739045;30;20061;-53
2022/08/03 01:12:58;;;;;;;2.88;1.42;;;;;;;;;;4715624;30;20068;-52
2022/08/03 01:15:45;;;;;;;13.05;1.70;;;;;;;;;;4734032;30;20072;-55
2022/08/03 01:18:12;;;;;;;10.52;2.75;;;;;;;;;;4734175;30;20118;-56
2022/08/03 01:20:44;;;;;;;3.92;2.10;;;;;;;;;;4734070;30;20079;-54
2022/08/03 01:23:34;;;;;;;4.10;2.30;;;;;;;;;;4734243;30;20051;-56
2022/08/03 01:26:10;;;;;;;4.20;1.40;;;;;;;;;;4733626;30;20048;-55
2022/08/03 01:29:00;;;;;;;2.88;1.92;;;;;;;;;;4733967;30;20518;-56
2022/08/03 01:31:51;;;;;;;4.82;1.67;;;;;;;;;;4733702;30;20068;-53
2022/08/03 01:34:45;;;;;;;2.50;1.65;;;;;;;;;;4733956;30;20045;-55
2022/08/03 01:37:21;;;;;;;2.40;1.63;;;;;;;;;;4734059;30;20060;-56
2022/08/03 01:39:50;;;;;;;3.65;1.27;;;;;;;;;;4733922;30;20048;-54
2022/08/03 01:42:19;;;;;;;4.20;1.70;;;;;;;;;;4734012;30;20087;-55
2022/08/03 01:44:51;;;;;;;3.35;1.42;;;;;;;;;;4733778;30;20049;-55
2022/08/03 01:47:21;;;;;;;6.22;2.95;;;;;;;;;;4733696;30;20044;-51
2022/08/03 01:49:49;;;;;;;2.10;1.60;;;;;;;;;;4732724;30;20098;-54
2022/08/03 01:52:18;;;;;;;3.67;1.95;;;;;;;;;;4734131;30;20473;-54
2022/08/03 01:54:49;;;;;;;2.25;1.60;;;;;;;;;;4734011;30;20383;-54
2022/08/03 01:57:18;;;;;;;2.38;1.60;;;;;;;;;;4733847;30;20103;-52
2022/08/03 01:59:49;;;;;;;4.47;2.42;;;;;;;;;;4733624;30;20045;-53
2022/08/03 02:02:18;;;;;;;2.33;1.58;;;;;;;;;;4734042;30;20492;-52
2022/08/03 02:05:00;;;;;;;3.83;1.75;;;;;;;;;;4733489;30;20493;-53
2022/08/03 02:07:30;;;;;;;2.65;1.60;;;;;;;;;;4733819;30;20051;-53
2022/08/03 02:09:59;;;;;;;2.55;1.42;;;;;;;;;;4748289;30;20113;-53
2022/08/03 02:12:29;;;;;;;4.45;1.40;;;;;;;;;;4751246;30;20049;-55
2022/08/03 02:14:58;;;;;;;3.30;1.80;;;;;;;;;;4750836;30;20102;-53
2022/08/03 02:17:27;;;;;;;2.65;1.50;;;;;;;;;;4751341;30;20048;-54
2022/08/03 02:20:08;;;;;;;2.10;1.40;;;;;;;;;;4751181;30;20068;-52
2022/08/03 02:22:39;;;;;;;2.35;1.52;;;;;;;;;;4751114;30;20075;-52
2022/08/03 02:25:12;;;;;;;2.50;1.70;;;;;;;;;;4750865;30;20114;-54
2022/08/03 02:27:51;;;;;;;6.22;2.10;;;;;;;;;;4751154;30;20040;-54
2022/08/03 02:30:19;;;;;;;6.70;2.10;;;;;;;;;;4750970;30;20048;-53
2022/08/03 02:32:55;;;;;;;4.40;1.40;;;;;;;;;;4751233;30;20069;-54
2022/08/03 02:35:26;;;;;;;3.53;1.65;;;;;;;;;;4750909;30;20752;-54
2022/08/03 02:38:00;;;;;;;5.55;2.70;;;;;;;;;;4766771;30;20056;-54
2022/08/03 02:40:29;;;;;;;2.22;1.35;;;;;;;;;;4754517;30;20109;-51
2022/08/03 02:43:00;;;;;;;3.53;1.48;;;;;;;;;;4754350;30;20048;-52
2022/08/03 02:45:28;;;;;;;3.80;1.67;;;;;;;;;;4754175;30;20063;-53
2022/08/03 02:47:59;;;;;;;1.85;1.30;;;;;;;;;;4754326;30;20043;-52
2022/08/03 02:50:29;;;;;;;4.82;1.85;;;;;;;;;;4754258;30;20048;-52
2022/08/03 02:52:58;;;;;;;2.08;1.27;;;;;;;;;;4753832;30;20056;-56
2022/08/03 02:55:27;;;;;;;3.00;1.23;;;;;;;;;;4754126;30;20060;-54
2022/08/03 02:57:56;;;;;;;6.00;2.20;;;;;;;;;;4754069;30;20055;-55
2022/08/03 03:00:28;;;;;;;1.80;1.33;;;;;;;;;;4754080;30;20052;-52
2022/08/03 03:02:58;;;;;;;3.78;1.63;;;;;;;;;;4754001;30;20052;-53
2022/08/03 03:05:27;;;;;;;1.95;1.40;;;;;;;;;;4753900;30;20052;-52
2022/08/03 03:08:17;;;;;;;2.35;1.50;;;;;;;;;;4751558;30;20067;-53
2022/08/03 03:10:55;;;;;;;1.77;1.15;;;;;;;;;;4736415;30;20064;-53
2022/08/03 03:13:23;;;;;;;5.05;1.15;;;;;;;;;;4736051;30;20052;-56
2022/08/03 03:15:51;;;;;;;2.20;1.77;;;;;;;;;;4736162;30;20061;-54
2022/08/03 03:18:20;;;;;;;1.58;1.27;;;;;;;;;;4736160;30;20076;-51
2022/08/03 03:20:51;;;;;;;9.38;1.75;;;;;;;;;;4736132;30;20079;-54
2022/08/03 03:23:21;;;;;;;3.03;1.00;;;;;;;;;;4736253;30;20398;-50
2022/08/03 03:25:49;;;;;;;4.32;1.73;;;;;;;;;;4734914;30;20069;-53
2022/08/03 03:28:16;;;;;;;2.92;1.67;;;;;;;;;;4736181;30;20049;-53
2022/08/03 03:30:44;;;;;;;4.60;1.30;;;;;;;;;;4736303;30;20056;-54
2022/08/03 03:33:20;;;;;;;3.78;1.50;;;;;;;;;;4735672;30;20049;-49
2022/08/03 03:35:48;;;;;;;3.47;1.40;;;;;;;;;;4736083;30;20514;-51
2022/08/03 03:38:15;;;;;;;1.67;1.00;;;;;;;;;;4734656;30;20045;-54
2022/08/03 03:40:43;;;;;;;3.03;1.10;;;;;;;;;;4735765;30;20083;-55
2022/08/03 03:43:11;;;;;;;1.83;0.90;;;;;;;;;;4735714;30;20095;-52
2022/08/03 03:45:42;;;;;;;1.13;0.90;;;;;;;;;;4735468;30;20053;-54
2022/08/03 03:48:09;;;;;;;3.75;1.00;;;;;;;;;;4735015;30;20069;-54
2022/08/03 03:50:39;;;;;;;2.00;1.23;;;;;;;;;;4735487;30;20049;-54
2022/08/03 03:53:11;;;;;;;3.55;0.90;;;;;;;;;;4735543;30;20522;-51
2022/08/03 03:55:39;;;;;;;1.40;0.80;;;;;;;;;;4735536;30;20056;-56
2022/08/03 03:58:27;;;;;;;1.27;0.80;;;;;;;;;;4735320;30;20049;-52
2022/08/03 04:00:54;;;;;;;2.20;1.10;;;;;;;;;;4735220;30;20414;-54
2022/08/03 04:03:21;;;;;;;2.08;1.10;;;;;;;;;;4735665;30;20060;-53
2022/08/03 04:11:30;;;;;;;1.00;0.80;;;;;;;;;;4752955;30;20052;-55
2022/08/03 04:14:04;;;;;;;1.55;0.73;;;;;;;;;;4752938;30;20520;-54
2022/08/03 04:16:33;;;;;;;;;;;;;;;;;;4753044;30;20056;-52
2022/08/03 04:19:07;;;;;;;2.65;0.85;;;;;;;;;;4752792;30;19980;-52
2022/08/03 04:21:39;;;;;;;2.33;0.80;;;;;;;;;;4752563;30;20064;-53
2022/08/03 04:24:09;;;;;;;1.10;0.63;;;;;;;;;;4766384;30;20048;-54
2022/08/03 04:26:39;;;;;;;1.50;0.90;;;;;;;;;;4752444;30;20052;-55
2022/08/03 04:29:10;;;;;;;2.00;0.85;;;;;;;;;;4752484;30;20509;-54
2022/08/03 04:31:38;;;;;;;1.35;0.65;;;;;;;;;;4752546;30;20068;-51
2022/08/03 04:34:06;;;;;;;1.27;0.82;;;;;;;;;;4752315;30;20055;-54
2022/08/03 04:36:43;;;;;;;2.22;1.00;;;;;;;;;;4752601;30;20056;-53
2022/08/03 04:39:15;;;;;;;1.40;0.63;;;;;;;;;;4752394;30;20581;-53
2022/08/03 04:41:44;;;;;;;1.52;0.80;;;;;;;;;;4752396;30;20529;-54
2022/08/03 04:44:36;;;;;;;2.00;0.90;;;;;;;;;;4752361;30;20132;-54
2022/08/03 04:47:04;;;;;;;1.97;0.73;;;;;;;;;;4752243;30;20053;-53
2022/08/03 04:49:31;;;;;;;5.50;1.00;;;;;;;;;;4752223;30;20513;-53
2022/08/03 04:51:59;;;;;;;3.58;0.75;;;;;;;;;;4751859;30;20566;-52
2022/08/03 04:54:26;;;;;;;2.00;0.93;;;;;;;;;;4752117;30;20043;-53
2022/08/03 04:56:53;;;;;;;2.55;0.70;;;;;;;;;;4752018;30;20083;-52
2022/08/03 04:59:20;;;;;;;2.22;0.75;;;;;;;;;;4751612;30;20044;-50
2022/08/03 05:01:47;;;;;;;1.98;0.70;;;;;;;;;;4752068;30;20048;-54
2022/08/03 05:04:15;;;;;;;6.07;0.80;;;;;;;;;;4752426;30;20072;-52
2022/08/03 05:06:42;;;;;;;1.02;0.75;;;;;;;;;;4750588;30;20097;-56
2022/08/03 05:09:16;;;;;;;2.28;0.80;;;;;;;;;;4742245;30;20048;-55
2022/08/03 05:12:05;;;;;;;1.08;0.70;;;;;;;;;;4734350;30;20526;-52
2022/08/03 05:14:33;;;;;;;1.63;0.70;;;;;;;;;;4734262;30;20402;-54
2022/08/03 05:17:00;;;;;;;1.35;0.60;;;;;;;;;;4733852;30;20052;-53
2022/08/03 05:19:27;;;;;;;2.90;0.70;;;;;;;;;;4734234;30;20059;-56
2022/08/03 05:21:55;;;;;;;5.25;1.10;;;;;;;;;;4733989;30;20048;-54
2022/08/03 05:24:22;;;;;;;3.85;1.00;;;;;;;;;;4734326;30;20483;-56
2022/08/03 05:26:49;;;;;;;1.10;0.60;;;;;;;;;;4733834;30;20048;-53
2022/08/03 05:29:16;;;;;;;2.17;0.70;;;;;;;;;;4734307;30;20418;-54
2022/08/03 05:31:44;;;;;;;3.05;0.90;;;;;;;;;;4734310;30;20072;-52
2022/08/03 05:34:11;;;;;;;3.30;0.60;;;;;;;;;;4734005;30;20045;-53
2022/08/03 05:36:38;;;;;;;3.22;0.95;;;;;;;;;;4733714;30;20122;-56
2022/08/03 05:39:05;;;;;;;3.45;0.90;;;;;;;;;;4733871;30;20052;-51
2022/08/03 05:41:32;;;;;;;2.30;0.75;;;;;;;;;;4733874;30;20060;-55
2022/08/03 05:44:03;;;;;;;1.73;0.60;;;;;;;;;;4733975;30;20477;-56
2022/08/03 05:46:30;;;;;;;3.83;0.90;;;;;;;;;;4733523;30;20044;-55
2022/08/03 11:22:53;;;;;;;1.58;0.30;;;;;;;;;;5552061;22;20758;31
2022/08/03 11:26:10;;;;;;;4.95;1.17;;;;;;;;;;4781601;29;20530;-47
2022/08/03 11:28:39;;;;;;;3.25;1.58;;;;;;;;;;4783761;29;20051;-49
2022/08/03 11:31:32;;;;;;;1.65;0.57;;;;;;;;;;4801354;29;20059;-45
2022/08/03 17:05:47;;;;;;;1.25;0.70;;;;;;;;;;4768182;30;20085;-51
2022/08/03 21:49:04;;;;;;;4.38;1.00;;;;;;;;;;4803429;29;20053;-50
2022/08/03 21:53:35;;;;;;;2.60;0.85;;;;;;;;;;4824226;29;20066;-47
2022/08/03 21:58:05;;;;;;;2.65;1.02;;;;;;;;;;4824288;29;20053;-49
2022/08/03 22:02:37;;;;;;;1.38;0.93;;;;;;;;;;4824291;29;20125;-50
2022/08/03 22:07:07;;;;;;;2.42;0.95;;;;;;;;;;4824358;29;20081;-50
2022/08/03 22:11:37;;;;;;;2.85;1.15;;;;;;;;;;4824279;29;20106;-50
2022/08/03 22:16:09;;;;;;;3.65;0.90;;;;;;;;;;4824152;29;20158;-51
2022/08/03 22:20:39;;;;;;;1.63;0.90;;;;;;;;;;4839678;29;20057;-49
2022/08/03 22:25:09;;;;;;;2.08;1.23;;;;;;;;;;4842098;29;20053;-50
2022/08/03 22:29:40;;;;;;;3.28;1.20;;;;;;;;;;4842010;29;20099;-49
2022/08/03 22:34:10;;;;;;;3.42;1.20;;;;;;;;;;4842045;29;20797;-50
2022/08/03 22:38:40;;;;;;;3.78;1.27;;;;;;;;;;4841750;29;20401;-51
2022/08/03 22:43:10;;;;;;;2.03;1.10;;;;;;;;;;4841951;29;20120;-48
2022/08/03 22:47:40;;;;;;;2.90;1.10;;;;;;;;;;4841659;29;20096;-50
